sensor_id;sensor_type;location;lat;lon;timestamp;pressure;altitude;pressure_sealevel;temperature;humidity
49877;BME280;35771;48.978;9.294;2023-02-13T17:17:18;100909.81;;;3.15;100.00
49877;BME280;35771;48.978;9.294;2023-02-13T17:19:46;100897.59;;;3.09;100.00
49877;BME280;35771;48.978;9.294;2023-02-13T17:22:20;100921.88;;;3.22;100.00
49877;BME280;35771;48.978;9.294;2023-02-13T17:24:47;100902.31;;;3.06;100.00
49877;BME280;35771;48.978;9.294;2023-02-13T17:27:14;100929.28;;;3.18;100.00
49877;BME280;35771;48.978;9.294;2023-02-13T17:29:41;100931.41;;;3.13;100.00
49877;BME280;35771;48.978;9.294;2023-02-13T17:32:11;100915.53;;;2.94;100.00
49877;BME280;35771;48.978;9.294;2023-02-13T17:34:41;100936.28;;;3.07;100.00
49877;BME280;35771;48.978;9.294;2023-02-13T17:37:14;100947.75;;;2.94;100.00
49877;BME280;35771;48.978;9.294;2023-02-13T17:39:41;100935.34;;;2.77;100.00
49877;BME280;35771;48.978;9.294;2023-02-13T17:42:09;100940.09;;;2.72;100.00
49877;BME280;35771;48.978;9.294;2023-02-13T17:44:42;100950.81;;;2.58;100.00
49877;BME280;35771;48.978;9.294;2023-02-13T17:47:08;100938.13;;;2.29;100.00
49877;BME280;35771;48.978;9.294;2023-02-13T17:49:35;100941.16;;;2.23;100.00
49877;BME280;35771;48.978;9.294;2023-02-13T17:52:03;100942.97;;;2.23;100.00
49877;BME280;35771;48.978;9.294;2023-02-13T17:54:29;100954.59;;;2.23;100.00
49877;BME280;35771;48.978;9.294;2023-02-13T17:57:00;100959.94;;;2.23;100.00
49877;BME280;35771;48.978;9.294;2023-02-13T17:59:27;100966.97;;;2.26;100.00
49877;BME280;35771;48.978;9.294;2023-02-13T18:01:53;100978.81;;;2.22;100.00
49877;BME280;35771;48.978;9.294;2023-02-13T18:04:20;100976.81;;;2.25;100.00
49877;BME280;35771;48.978;9.294;2023-02-13T18:06:50;100963.59;;;2.06;100.00
49877;BME280;35771;48.978;9.294;2023-02-13T18:09:19;100967.56;;;1.99;100.00
49877;BME280;35771;48.978;9.294;2023-02-13T18:11:48;100977.31;;;2.00;100.00
49877;BME280;35771;48.978;9.294;2023-02-13T18:14:15;100952.16;;;1.87;100.00
49877;BME280;35771;48.978;9.294;2023-02-13T18:16:42;100968.16;;;1.88;100.00
49877;BME280;35771;48.978;9.294;2023-02-13T18:19:08;100976.97;;;1.90;100.00
49877;BME280;35771;48.978;9.294;2023-02-13T18:21:35;100972.91;;;1.83;100.00
49877;BME280;35771;48.978;9.294;2023-02-13T18:24:01;100979.16;;;1.84;100.00
49877;BME280;35771;48.978;9.294;2023-02-13T18:26:29;100974.81;;;1.81;100.00
49877;BME280;35771;48.978;9.294;2023-02-13T18:28:56;100984.66;;;1.81;100.00
49877;BME280;35771;48.978;9.294;2023-02-13T18:31:22;100997.53;;;1.74;100.00
49877;BME280;35771;48.978;9.294;2023-02-13T18:33:49;100984.56;;;1.66;100.00
49877;BME280;35771;48.978;9.294;2023-02-13T18:36:15;100971.19;;;1.49;100.00
49877;BME280;35771;48.978;9.294;2023-02-13T18:38:42;100971.34;;;1.46;100.00
49877;BME280;35771;48.978;9.294;2023-02-13T18:41:08;100974.53;;;1.36;100.00
49877;BME280;35771;48.978;9.294;2023-02-13T18:43:36;100991.22;;;1.41;100.00
49877;BME280;35771;48.978;9.294;2023-02-13T18:46:03;100982.66;;;1.35;100.00
49877;BME280;35771;48.978;9.294;2023-02-13T18:48:30;100976.84;;;1.27;100.00
49877;BME280;35771;48.978;9.294;2023-02-13T18:50:58;100971.50;;;1.09;100.00
49877;BME280;35771;48.978;9.294;2023-02-13T18:53:25;100974.31;;;1.06;100.00
49877;BME280;35771;48.978;9.294;2023-02-13T18:55:58;101001.31;;;1.19;100.00
49877;BME280;35771;48.978;9.294;2023-02-13T18:58:25;100993.94;;;1.06;100.00
49877;BME280;35771;48.978;9.294;2023-02-13T19:00:53;100974.25;;;0.90;100.00
49877;BME280;35771;48.978;9.294;2023-02-13T19:03:20;100993.56;;;0.97;100.00
49877;BME280;35771;48.978;9.294;2023-02-13T19:05:46;100997.94;;;0.98;100.00
49877;BME280;35771;48.978;9.294;2023-02-13T19:08:13;100988.66;;;0.87;100.00
49877;BME280;35771;48.978;9.294;2023-02-13T19:10:40;100998.50;;;1.04;100.00
49877;BME280;35771;48.978;9.294;2023-02-13T19:13:06;100972.91;;;0.99;100.00
49877;BME280;35771;48.978;9.294;2023-02-13T19:15:34;100994.91;;;1.05;100.00
49877;BME280;35771;48.978;9.294;2023-02-13T19:18:02;100990.88;;;0.97;100.00
49877;BME280;35771;48.978;9.294;2023-02-13T19:20:29;100981.19;;;0.94;100.00
49877;BME280;35771;48.978;9.294;2023-02-13T19:22:55;100980.63;;;0.87;100.00
49877;BME280;35771;48.978;9.294;2023-02-13T19:25:22;100974.00;;;0.77;100.00
49877;BME280;35771;48.978;9.294;2023-02-13T19:27:48;100996.78;;;0.86;100.00
49877;BME280;35771;48.978;9.294;2023-02-13T19:30:15;100989.75;;;0.83;100.00
49877;BME280;35771;48.978;9.294;2023-02-13T19:32:42;100975.34;;;0.68;100.00
49877;BME280;35771;48.978;9.294;2023-02-13T19:35:10;100984.53;;;0.63;100.00
49877;BME280;35771;48.978;9.294;2023-02-13T19:37:36;100995.59;;;0.74;100.00
49877;BME280;35771;48.978;9.294;2023-02-13T19:40:03;100994.06;;;0.68;100.00
49877;BME280;35771;48.978;9.294;2023-02-13T19:42:29;101001.56;;;0.79;100.00
49877;BME280;35771;48.978;9.294;2023-02-13T19:44:56;100994.53;;;0.59;100.00
49877;BME280;35771;48.978;9.294;2023-02-13T19:47:22;100981.22;;;0.58;100.00
49877;BME280;35771;48.978;9.294;2023-02-13T19:49:49;100979.56;;;0.55;100.00
49877;BME280;35771;48.978;9.294;2023-02-13T19:52:17;100973.75;;;0.47;100.00
49877;BME280;35771;48.978;9.294;2023-02-13T19:54:44;100991.88;;;0.59;100.00
49877;BME280;35771;48.978;9.294;2023-02-13T19:57:10;100986.28;;;0.64;100.00
49877;BME280;35771;48.978;9.294;2023-02-13T19:59:38;100963.81;;;0.49;100.00
49877;BME280;35771;48.978;9.294;2023-02-13T20:02:05;100991.34;;;0.51;100.00
49877;BME280;35771;48.978;9.294;2023-02-13T20:04:32;100988.06;;;0.46;100.00
49877;BME280;35771;48.978;9.294;2023-02-13T20:07:00;100996.25;;;0.43;100.00
49877;BME280;35771;48.978;9.294;2023-02-13T20:09:29;100989.66;;;0.31;100.00
49877;BME280;35771;48.978;9.294;2023-02-13T20:11:55;100999.38;;;0.33;100.00
49877;BME280;35771;48.978;9.294;2023-02-13T20:14:22;100980.78;;;0.11;100.00
49877;BME280;35771;48.978;9.294;2023-02-13T20:16:48;100980.72;;;0.13;100.00
49877;BME280;35771;48.978;9.294;2023-02-13T20:19:15;100970.94;;;0.12;100.00
49877;BME280;35771;48.978;9.294;2023-02-13T20:21:41;101004.13;;;0.27;100.00
49877;BME280;35771;48.978;9.294;2023-02-13T20:24:09;100990.63;;;0.11;100.00
49877;BME280;35771;48.978;9.294;2023-02-13T20:26:37;100998.22;;;0.20;100.00
49877;BME280;35771;48.978;9.294;2023-02-13T20:29:04;100990.84;;;0.06;100.00
49877;BME280;35771;48.978;9.294;2023-02-13T20:31:31;101001.56;;;0.06;100.00
49877;BME280;35771;48.978;9.294;2023-02-13T20:33:58;100987.81;;;-0.05;100.00
49877;BME280;35771;48.978;9.294;2023-02-13T20:36:27;100999.09;;;0.02;100.00
49877;BME280;35771;48.978;9.294;2023-02-13T20:38:56;100987.16;;;-0.10;100.00
49877;BME280;35771;48.978;9.294;2023-02-13T20:41:25;100992.38;;;-0.07;100.00
49877;BME280;35771;48.978;9.294;2023-02-13T20:43:56;101000.25;;;-0.04;100.00
49877;BME280;35771;48.978;9.294;2023-02-13T20:46:22;101003.84;;;-0.05;100.00
49877;BME280;35771;48.978;9.294;2023-02-13T20:48:49;100993.66;;;-0.16;100.00
49877;BME280;35771;48.978;9.294;2023-02-13T20:51:16;100995.25;;;-0.12;100.00
49877;BME280;35771;48.978;9.294;2023-02-13T20:53:44;100998.56;;;-0.07;100.00
49877;BME280;35771;48.978;9.294;2023-02-13T20:56:12;100991.28;;;-0.22;100.00
49877;BME280;35771;48.978;9.294;2023-02-13T20:58:39;100988.31;;;-0.16;100.00
49877;BME280;35771;48.978;9.294;2023-02-13T21:01:18;100962.44;;;-0.34;100.00
49877;BME280;35771;48.978;9.294;2023-02-13T21:03:46;100980.19;;;-0.33;100.00
49877;BME280;35771;48.978;9.294;2023-02-13T21:06:18;100968.94;;;-0.40;100.00
49877;BME280;35771;48.978;9.294;2023-02-13T21:08:45;100989.38;;;-0.39;100.00
49877;BME280;35771;48.978;9.294;2023-02-13T21:11:11;100961.06;;;-0.43;100.00
49877;BME280;35771;48.978;9.294;2023-02-13T21:13:41;100966.19;;;-0.39;100.00
49877;BME280;35771;48.978;9.294;2023-02-13T21:16:09;100967.19;;;-0.41;100.00
49877;BME280;35771;48.978;9.294;2023-02-13T21:18:38;100971.69;;;-0.42;100.00
49877;BME280;35771;48.978;9.294;2023-02-13T21:21:05;100971.16;;;-0.50;100.00
49877;BME280;35771;48.978;9.294;2023-02-13T21:23:32;100958.00;;;-0.55;100.00
49877;BME280;35771;48.978;9.294;2023-02-13T21:26:03;100961.88;;;-0.62;100.00
49877;BME280;35771;48.978;9.294;2023-02-13T21:28:30;100972.31;;;-0.56;100.00
49877;BME280;35771;48.978;9.294;2023-02-13T21:30:57;100972.56;;;-0.62;100.00
49877;BME280;35771;48.978;9.294;2023-02-13T21:33:23;100968.09;;;-0.61;100.00
49877;BME280;35771;48.978;9.294;2023-02-13T21:35:59;100961.22;;;-0.67;100.00
49877;BME280;35771;48.978;9.294;2023-02-13T21:38:26;100948.28;;;-0.76;100.00
49877;BME280;35771;48.978;9.294;2023-02-13T21:40:53;100953.56;;;-0.75;100.00
49877;BME280;35771;48.978;9.294;2023-02-13T21:43:20;100964.25;;;-0.75;100.00
49877;BME280;35771;48.978;9.294;2023-02-13T21:45:47;100943.03;;;-0.78;100.00
49877;BME280;35771;48.978;9.294;2023-02-13T21:48:13;100944.44;;;-0.90;100.00
49877;BME280;35771;48.978;9.294;2023-02-13T21:50:40;100967.91;;;-0.77;100.00
49877;BME280;35771;48.978;9.294;2023-02-13T21:53:08;100968.53;;;-0.70;100.00
49877;BME280;35771;48.978;9.294;2023-02-13T21:55:34;100952.78;;;-0.77;100.00
49877;BME280;35771;48.978;9.294;2023-02-13T21:58:01;100943.63;;;-0.92;100.00
49877;BME280;35771;48.978;9.294;2023-02-13T22:00:27;100954.25;;;-0.90;100.00
49877;BME280;35771;48.978;9.294;2023-02-13T22:02:54;100957.31;;;-0.79;100.00
49877;BME280;35771;48.978;9.294;2023-02-13T22:05:21;100957.03;;;-0.73;100.00
49877;BME280;35771;48.978;9.294;2023-02-13T22:07:47;100952.16;;;-0.83;100.00
49877;BME280;35771;48.978;9.294;2023-02-13T22:10:33;100937.34;;;-0.91;100.00
49877;BME280;35771;48.978;9.294;2023-02-13T22:12:59;100965.44;;;-0.82;100.00
49877;BME280;35771;48.978;9.294;2023-02-13T22:15:26;100965.38;;;-0.80;100.00
49877;BME280;35771;48.978;9.294;2023-02-13T22:17:52;100939.22;;;-0.93;100.00
49877;BME280;35771;48.978;9.294;2023-02-13T22:20:19;100957.56;;;-0.85;100.00
49877;BME280;35771;48.978;9.294;2023-02-13T22:22:46;100962.44;;;-0.74;100.00
49877;BME280;35771;48.978;9.294;2023-02-13T22:25:13;100948.03;;;-0.91;100.00
49877;BME280;35771;48.978;9.294;2023-02-13T22:27:45;100956.22;;;-0.75;100.00
49877;BME280;35771;48.978;9.294;2023-02-13T22:30:13;100954.25;;;-0.90;100.00
49877;BME280;35771;48.978;9.294;2023-02-13T22:32:40;100947.63;;;-0.81;100.00
49877;BME280;35771;48.978;9.294;2023-02-13T22:35:07;100958.63;;;-0.89;100.00
49877;BME280;35771;48.978;9.294;2023-02-13T22:37:35;100962.84;;;-0.83;100.00
49877;BME280;35771;48.978;9.294;2023-02-13T22:40:02;100935.22;;;-1.03;100.00
49877;BME280;35771;48.978;9.294;2023-02-13T22:42:28;100976.41;;;-0.88;100.00
49877;BME280;35771;48.978;9.294;2023-02-13T22:44:56;100969.25;;;-0.87;100.00
49877;BME280;35771;48.978;9.294;2023-02-13T22:47:23;100964.03;;;-0.91;100.00
49877;BME280;35771;48.978;9.294;2023-02-13T22:49:49;100954.72;;;-1.01;100.00
49877;BME280;35771;48.978;9.294;2023-02-13T22:52:16;100972.31;;;-0.97;100.00
49877;BME280;35771;48.978;9.294;2023-02-13T22:54:42;100969.84;;;-1.01;100.00
49877;BME280;35771;48.978;9.294;2023-02-13T22:57:09;100961.97;;;-1.04;100.00
49877;BME280;35771;48.978;9.294;2023-02-13T22:59:35;100963.47;;;-0.97;100.00
49877;BME280;35771;48.978;9.294;2023-02-13T23:02:04;100935.75;;;-1.15;100.00
49877;BME280;35771;48.978;9.294;2023-02-13T23:04:31;100962.19;;;-0.88;100.00
49877;BME280;35771;48.978;9.294;2023-02-13T23:06:57;100947.72;;;-1.03;100.00
49877;BME280;35771;48.978;9.294;2023-02-13T23:09:24;100957.19;;;-0.96;100.00
49877;BME280;35771;48.978;9.294;2023-02-13T23:11:50;100949.50;;;-1.04;100.00
49877;BME280;35771;48.978;9.294;2023-02-13T23:14:49;100945.03;;;-1.03;100.00
49877;BME280;35771;48.978;9.294;2023-02-13T23:17:17;100949.84;;;-1.12;100.00
49877;BME280;35771;48.978;9.294;2023-02-13T23:20:01;100969.06;;;-1.03;100.00
49877;BME280;35771;48.978;9.294;2023-02-13T23:22:28;100963.72;;;-1.03;100.00
49877;BME280;35771;48.978;9.294;2023-02-13T23:24:54;100969.13;;;-1.05;100.00
49877;BME280;35771;48.978;9.294;2023-02-13T23:27:21;100937.78;;;-1.20;100.00
49877;BME280;35771;48.978;9.294;2023-02-13T23:29:47;100963.03;;;-1.09;100.00
49877;BME280;35771;48.978;9.294;2023-02-13T23:32:14;100955.16;;;-1.12;100.00
49877;BME280;35771;48.978;9.294;2023-02-13T23:34:42;100957.25;;;-1.18;100.00
49877;BME280;35771;48.978;9.294;2023-02-13T23:37:08;100943.22;;;-1.23;100.00
49877;BME280;35771;48.978;9.294;2023-02-13T23:39:35;100929.41;;;-1.33;100.00
49877;BME280;35771;48.978;9.294;2023-02-13T23:42:01;100945.22;;;-1.29;100.00
49877;BME280;35771;48.978;9.294;2023-02-13T23:44:28;100940.28;;;-1.38;100.00
49877;BME280;35771;48.978;9.294;2023-02-13T23:46:54;100925.34;;;-1.21;100.00
49877;BME280;35771;48.978;9.294;2023-02-13T23:49:21;100919.25;;;-1.25;100.00
49877;BME280;35771;48.978;9.294;2023-02-13T23:51:49;100916.41;;;-1.41;100.00
49877;BME280;35771;48.978;9.294;2023-02-13T23:54:17;100943.91;;;-1.18;100.00
49877;BME280;35771;48.978;9.294;2023-02-13T23:56:44;100934.63;;;-1.30;100.00
49877;BME280;35771;48.978;9.294;2023-02-13T23:59:11;100930.41;;;-1.36;100.00
